createdAt,value
2016-11-22T00:00:57.560Z,995.2
2016-11-22T00:01:57.549Z,995.18
2016-11-22T00:02:57.534Z,995.25
2016-11-22T00:03:57.524Z,995.27
2016-11-22T00:04:57.508Z,995.27
2016-11-22T00:05:57.495Z,995.22
2016-11-22T00:06:57.484Z,995.24
2016-11-22T00:07:57.473Z,995.33
2016-11-22T00:08:57.458Z,995.35
2016-11-22T00:09:57.446Z,995.27
2016-11-22T00:10:57.434Z,995.26
2016-11-22T00:11:57.428Z,995.27
2016-11-22T00:12:57.408Z,995.31
2016-11-22T00:13:57.395Z,995.4
2016-11-22T00:14:57.383Z,995.41
2016-11-22T00:15:57.369Z,995.51
2016-11-22T00:16:57.357Z,995.44
2016-11-22T00:17:57.344Z,995.48
2016-11-22T00:18:57.329Z,995.37
2016-11-22T00:19:57.316Z,995.39
2016-11-22T00:20:57.304Z,995.39
2016-11-22T00:21:57.290Z,995.37
2016-11-22T00:22:57.281Z,995.44
2016-11-22T00:23:57.263Z,995.5
2016-11-22T00:24:57.250Z,995.5
2016-11-22T00:25:57.236Z,995.42
2016-11-22T00:26:57.221Z,995.46
2016-11-22T00:27:57.208Z,995.42
2016-11-22T00:28:57.195Z,995.4
2016-11-22T00:29:57.180Z,995.36
2016-11-22T00:30:57.169Z,995.33
2016-11-22T00:31:57.153Z,995.3
2016-11-22T00:32:57.140Z,995.24
2016-11-22T00:33:57.125Z,995.1
2016-11-22T00:34:57.111Z,995.07
2016-11-22T00:35:57.100Z,994.99
2016-11-22T00:36:57.084Z,995.02
2016-11-22T00:37:57.069Z,995.06
2016-11-22T00:38:57.055Z,995.08
2016-11-22T00:39:57.041Z,995.07
2016-11-22T00:40:57.027Z,995.05
2016-11-22T00:41:57.015Z,995.04
2016-11-22T00:42:57.000Z,995.05
2016-11-22T00:43:56.988Z,994.95
2016-11-22T00:44:56.972Z,994.95
2016-11-22T00:45:56.959Z,994.88
2016-11-22T00:46:56.945Z,994.79
2016-11-22T00:47:56.932Z,994.74
2016-11-22T00:48:56.917Z,994.7
2016-11-22T00:49:56.903Z,994.65
2016-11-22T00:50:56.890Z,994.64
2016-11-22T00:51:56.876Z,994.63
2016-11-22T00:52:56.863Z,994.64
2016-11-22T00:53:56.849Z,994.66
2016-11-22T00:54:56.835Z,994.72
2016-11-22T00:55:56.821Z,994.67
2016-11-22T00:56:56.808Z,994.77
2016-11-22T00:57:56.794Z,994.74
2016-11-22T00:58:56.781Z,994.69
2016-11-22T00:59:56.766Z,994.75
2016-11-22T01:00:56.754Z,994.7
2016-11-22T01:01:56.741Z,994.73
2016-11-22T01:02:56.726Z,994.75
2016-11-22T01:03:56.712Z,994.76
2016-11-22T01:04:56.699Z,994.86
2016-11-22T01:05:56.686Z,994.87
2016-11-22T01:06:56.673Z,994.86
2016-11-22T01:07:56.658Z,994.88
2016-11-22T01:08:56.645Z,994.95
2016-11-22T01:09:56.636Z,994.98
2016-11-22T01:10:56.620Z,994.94
2016-11-22T01:11:56.608Z,994.88
2016-11-22T01:12:56.593Z,994.9
2016-11-22T01:13:56.577Z,994.88
2016-11-22T01:14:56.564Z,995.04
2016-11-22T01:15:56.551Z,995.03
2016-11-22T01:16:56.540Z,994.9
2016-11-22T01:17:56.526Z,994.89
2016-11-22T01:18:56.514Z,994.77
2016-11-22T01:19:56.497Z,994.72
2016-11-22T01:20:56.484Z,994.71
2016-11-22T01:21:56.470Z,994.66
2016-11-22T01:22:56.457Z,994.65
2016-11-22T01:23:56.442Z,994.69
2016-11-22T01:24:56.430Z,994.78
2016-11-22T01:25:56.417Z,994.74
2016-11-22T01:26:56.403Z,994.72
2016-11-22T01:27:56.392Z,994.76
2016-11-22T01:28:56.376Z,994.78
2016-11-22T01:29:56.364Z,994.81
2016-11-22T01:30:56.350Z,994.76
2016-11-22T01:31:56.337Z,994.79
2016-11-22T01:32:56.323Z,994.82
2016-11-22T01:33:56.310Z,994.78
2016-11-22T01:34:56.297Z,994.89
2016-11-22T01:35:56.283Z,994.87
2016-11-22T01:36:56.271Z,994.8
2016-11-22T01:37:56.257Z,994.84
2016-11-22T01:38:56.246Z,994.84
2016-11-22T01:39:56.232Z,994.77
2016-11-22T01:40:56.217Z,994.76
2016-11-22T01:41:56.204Z,994.92
2016-11-22T01:42:56.196Z,994.82
2016-11-22T01:43:56.380Z,994.84
2016-11-22T01:44:56.163Z,994.9
2016-11-22T01:45:56.152Z,994.92
2016-11-22T01:46:56.138Z,995.03
2016-11-22T01:47:56.123Z,995.1
2016-11-22T01:48:56.112Z,995.09
2016-11-22T01:49:56.098Z,995.08
2016-11-22T01:50:56.084Z,995.04
2016-11-22T01:51:56.071Z,995.06
2016-11-22T01:52:56.057Z,995.03
2016-11-22T01:53:56.044Z,995.08
2016-11-22T01:54:56.032Z,995.12
2016-11-22T01:55:56.017Z,995.13
2016-11-22T01:56:56.003Z,995.12
2016-11-22T01:57:55.989Z,995.01
2016-11-22T01:58:55.993Z,994.93
2016-11-22T01:59:55.964Z,994.89
2016-11-22T02:00:55.949Z,994.86
2016-11-22T02:01:55.936Z,994.81
2016-11-22T02:02:55.923Z,994.77
2016-11-22T02:03:55.910Z,994.77
2016-11-22T02:04:55.894Z,994.75
2016-11-22T02:05:55.882Z,994.63
2016-11-22T02:06:55.868Z,994.65
2016-11-22T02:07:55.855Z,994.67
2016-11-22T02:08:55.841Z,994.66
2016-11-22T02:09:55.830Z,994.71
2016-11-22T02:10:55.814Z,994.77
2016-11-22T02:11:55.802Z,994.81
2016-11-22T02:12:55.786Z,994.88
2016-11-22T02:13:55.773Z,994.99
2016-11-22T02:14:55.760Z,995.07
2016-11-22T02:15:55.757Z,995.13
2016-11-22T02:16:55.731Z,995.18
2016-11-22T02:17:55.720Z,995.2
2016-11-22T02:18:55.706Z,995.22
2016-11-22T02:19:55.692Z,995.2
2016-11-22T02:20:55.677Z,995.09
2016-11-22T02:21:55.666Z,995.01
2016-11-22T02:22:55.650Z,994.99
2016-11-22T02:23:55.636Z,994.92
2016-11-22T02:24:55.626Z,994.76
2016-11-22T02:25:55.609Z,994.73
2016-11-22T02:26:55.595Z,994.71
2016-11-22T02:27:55.632Z,994.73
2016-11-22T02:28:55.570Z,994.77
2016-11-22T02:29:55.555Z,994.86
2016-11-22T02:30:55.540Z,994.81
2016-11-22T02:31:55.529Z,994.86
2016-11-22T02:32:55.514Z,994.91
2016-11-22T02:33:55.509Z,994.97
2016-11-22T02:34:55.486Z,995.06
2016-11-22T02:35:55.476Z,995.14
2016-11-22T02:36:55.459Z,995.31
2016-11-22T02:37:55.444Z,995.35
2016-11-22T02:38:55.432Z,995.31
2016-11-22T02:39:55.417Z,995.31
2016-11-22T02:40:55.406Z,995.35
2016-11-22T02:41:55.389Z,995.36
2016-11-22T02:42:55.377Z,995.26
2016-11-22T02:43:55.362Z,995.24
2016-11-22T02:44:55.347Z,995.25
2016-11-22T02:45:55.333Z,995.3
2016-11-22T02:46:55.321Z,995.25
2016-11-22T02:47:55.310Z,995.38
2016-11-22T02:48:55.292Z,995.34
2016-11-22T02:49:55.279Z,995.37
2016-11-22T02:50:55.266Z,995.39
2016-11-22T02:51:55.252Z,995.44
2016-11-22T02:52:55.236Z,995.54
2016-11-22T02:53:55.223Z,995.64
2016-11-22T02:54:55.209Z,995.66
2016-11-22T02:55:55.196Z,995.66
2016-11-22T02:56:55.184Z,995.61
2016-11-22T02:57:55.167Z,995.61
2016-11-22T02:58:55.153Z,995.6
2016-11-22T02:59:55.140Z,995.55
2016-11-22T03:00:55.126Z,995.51
2016-11-22T03:01:55.112Z,995.49
2016-11-22T03:02:55.099Z,995.53
2016-11-22T03:03:55.083Z,995.57
2016-11-22T03:04:55.069Z,995.6
2016-11-22T03:05:55.056Z,995.5
2016-11-22T03:06:55.042Z,995.51
2016-11-22T03:07:55.027Z,995.52
2016-11-22T03:08:55.013Z,995.5
2016-11-22T03:09:55.002Z,995.46
2016-11-22T03:10:54.985Z,995.45
2016-11-22T03:11:54.971Z,995.41
2016-11-22T03:12:54.957Z,995.42
2016-11-22T03:13:54.948Z,995.48
2016-11-22T03:14:54.929Z,995.59
2016-11-22T03:15:54.916Z,995.61
2016-11-22T03:16:54.906Z,995.66
2016-11-22T03:17:54.888Z,995.8
2016-11-22T03:18:54.876Z,995.86
2016-11-22T03:19:54.861Z,995.86
2016-11-22T03:20:54.849Z,995.79
2016-11-22T03:21:54.832Z,995.8
2016-11-22T03:22:54.818Z,995.82
2016-11-22T03:23:54.804Z,995.82
2016-11-22T03:24:54.791Z,995.76
2016-11-22T03:25:54.776Z,995.86
2016-11-22T03:26:54.764Z,995.97
2016-11-22T03:27:54.750Z,995.93
2016-11-22T03:28:54.735Z,995.87
2016-11-22T03:29:54.720Z,995.88
2016-11-22T03:30:54.706Z,995.86
2016-11-22T03:31:54.693Z,995.85
2016-11-22T03:32:54.679Z,995.82
2016-11-22T03:33:54.665Z,995.77
2016-11-22T03:34:54.652Z,995.78
2016-11-22T03:35:54.636Z,995.76
2016-11-22T03:36:54.622Z,995.63
2016-11-22T03:37:54.611Z,995.66
2016-11-22T03:38:54.595Z,995.68
2016-11-22T03:39:54.583Z,995.73
2016-11-22T03:40:54.570Z,995.74
2016-11-22T03:41:54.555Z,995.78
2016-11-22T03:42:54.541Z,995.84
2016-11-22T03:43:54.728Z,995.89
2016-11-22T03:44:54.513Z,995.89
2016-11-22T03:45:54.500Z,995.88
2016-11-22T03:46:54.486Z,995.94
2016-11-22T03:47:54.471Z,995.97
2016-11-22T03:48:54.458Z,995.88
2016-11-22T03:49:54.444Z,995.92
2016-11-22T03:50:54.429Z,995.93
2016-11-22T03:51:54.417Z,995.89
2016-11-22T03:52:54.404Z,995.91
2016-11-22T03:53:54.392Z,995.89
2016-11-22T03:54:54.375Z,995.92
2016-11-22T03:55:54.365Z,995.83
2016-11-22T03:56:54.347Z,995.78
2016-11-22T03:57:54.333Z,995.69
2016-11-22T03:58:54.322Z,995.61
2016-11-22T03:59:54.305Z,995.65
2016-11-22T04:00:54.291Z,995.74
2016-11-22T04:01:54.278Z,995.76
2016-11-22T04:02:54.264Z,995.87
2016-11-22T04:03:54.252Z,995.9
2016-11-22T04:04:54.238Z,995.95
2016-11-22T04:05:54.222Z,995.94
2016-11-22T04:06:54.208Z,996.03
2016-11-22T04:07:54.194Z,996.06
2016-11-22T04:08:54.182Z,996.05
2016-11-22T04:09:54.168Z,996.11
2016-11-22T04:10:54.154Z,996.16
2016-11-22T04:11:54.149Z,996.2
2016-11-22T04:12:54.126Z,996.31
2016-11-22T04:13:54.116Z,996.29
2016-11-22T04:14:54.101Z,996.36
2016-11-22T04:15:54.086Z,996.33
2016-11-22T04:16:54.071Z,996.42
2016-11-22T04:17:54.062Z,996.41
2016-11-22T04:18:54.044Z,996.42
2016-11-22T04:19:54.030Z,996.38
2016-11-22T04:20:54.016Z,996.35
2016-11-22T04:21:54.002Z,996.33
2016-11-22T04:22:53.988Z,996.23
2016-11-22T04:23:53.974Z,996.3
2016-11-22T04:24:53.961Z,996.31
2016-11-22T04:25:53.948Z,996.26
2016-11-22T04:26:53.934Z,996.24
2016-11-22T04:27:53.918Z,996.22
2016-11-22T04:28:53.906Z,996.19
2016-11-22T04:29:53.892Z,996.19
2016-11-22T04:30:53.879Z,996.13
2016-11-22T04:31:53.866Z,996.21
2016-11-22T04:32:53.853Z,996.29
2016-11-22T04:33:53.840Z,996.49
2016-11-22T04:34:53.824Z,996.71
2016-11-22T04:35:53.812Z,996.76
2016-11-22T04:36:53.801Z,996.86
2016-11-22T04:37:53.786Z,996.96
2016-11-22T04:38:53.770Z,997.09
2016-11-22T04:39:53.757Z,997.18
2016-11-22T04:40:53.744Z,997.25
2016-11-22T04:41:53.730Z,997.22
2016-11-22T04:42:53.717Z,997.31
2016-11-22T04:43:53.704Z,997.3
2016-11-22T04:44:53.690Z,997.23
2016-11-22T04:45:53.675Z,997.17
2016-11-22T04:46:53.661Z,997.17
2016-11-22T04:47:53.649Z,997.12
2016-11-22T04:48:53.635Z,997.02
2016-11-22T04:49:53.623Z,997.03
2016-11-22T04:50:53.608Z,996.97
2016-11-22T04:51:53.595Z,996.96
2016-11-22T04:52:53.583Z,996.9
2016-11-22T04:53:53.569Z,996.85
2016-11-22T04:54:53.556Z,996.76
2016-11-22T04:55:53.545Z,996.69
2016-11-22T04:56:53.530Z,996.64
2016-11-22T04:57:53.515Z,996.63
2016-11-22T04:58:53.503Z,996.71
2016-11-22T04:59:53.490Z,996.83
2016-11-22T05:00:53.475Z,996.87
2016-11-22T05:01:53.462Z,996.9
2016-11-22T05:02:53.449Z,996.86
2016-11-22T05:03:53.434Z,996.86
2016-11-22T05:04:53.422Z,996.85
2016-11-22T05:05:53.408Z,996.72
2016-11-22T05:06:53.396Z,996.79
2016-11-22T05:07:53.384Z,996.84
2016-11-22T05:08:53.369Z,996.72
2016-11-22T05:09:53.356Z,996.7
2016-11-22T05:10:53.343Z,996.63
2016-11-22T05:11:53.329Z,996.56
2016-11-22T05:12:53.317Z,996.46
2016-11-22T05:13:53.305Z,996.37
2016-11-22T05:14:53.292Z,996.38
2016-11-22T05:15:53.276Z,996.44
2016-11-22T05:16:53.262Z,996.4
2016-11-22T05:17:53.250Z,996.29
2016-11-22T05:18:53.235Z,996.32
2016-11-22T05:19:53.222Z,996.25
2016-11-22T05:20:53.208Z,996.27
2016-11-22T05:21:53.196Z,996.3
2016-11-22T05:22:53.181Z,996.41
2016-11-22T05:23:53.171Z,996.44
2016-11-22T05:24:53.155Z,996.53
2016-11-22T05:25:53.141Z,996.53
2016-11-22T05:26:53.127Z,996.58
2016-11-22T05:27:53.114Z,996.55
2016-11-22T05:28:53.101Z,996.55
2016-11-22T05:29:53.087Z,996.45
2016-11-22T05:30:53.073Z,996.38
2016-11-22T05:31:53.060Z,996.41
2016-11-22T05:32:53.047Z,996.62
2016-11-22T05:33:53.032Z,996.87
2016-11-22T05:34:53.021Z,997.09
2016-11-22T05:35:53.006Z,997.16
2016-11-22T05:36:52.993Z,997.16
2016-11-22T05:37:52.981Z,997.22
2016-11-22T05:38:52.965Z,997.17
2016-11-22T05:39:52.956Z,997.19
2016-11-22T05:40:52.941Z,997.3
2016-11-22T05:41:52.928Z,997.23
2016-11-22T05:42:52.916Z,997.21
2016-11-22T05:43:53.102Z,997.23
2016-11-22T05:44:52.886Z,997.38
2016-11-22T05:45:52.871Z,997.44
2016-11-22T05:46:52.861Z,997.46
2016-11-22T05:47:52.855Z,997.47
2016-11-22T05:48:52.833Z,997.46
2016-11-22T05:49:52.819Z,997.34
2016-11-22T05:50:52.809Z,997.43
2016-11-22T05:51:52.792Z,997.44
2016-11-22T05:52:52.779Z,997.49
2016-11-22T05:53:52.767Z,997.47
2016-11-22T05:54:52.752Z,997.53
2016-11-22T05:55:52.738Z,997.49
2016-11-22T05:56:52.725Z,997.55
2016-11-22T05:57:52.715Z,997.63
2016-11-22T05:58:52.698Z,997.63
2016-11-22T05:59:52.683Z,997.66
2016-11-22T06:00:52.672Z,997.61
2016-11-22T06:01:52.663Z,997.56
2016-11-22T06:02:52.649Z,997.54
2016-11-22T06:03:52.632Z,997.6
2016-11-22T06:04:52.619Z,997.58
2016-11-22T06:05:52.606Z,997.61
2016-11-22T06:06:52.590Z,997.62
2016-11-22T06:07:52.580Z,997.6
2016-11-22T06:08:52.565Z,997.6
2016-11-22T06:09:52.552Z,997.62
2016-11-22T06:10:52.538Z,997.64
2016-11-22T06:11:52.525Z,997.62
2016-11-22T06:12:52.515Z,997.61
2016-11-22T06:13:52.497Z,997.53
2016-11-22T06:14:52.485Z,997.6
2016-11-22T06:15:52.471Z,997.63
2016-11-22T06:16:52.458Z,997.7
2016-11-22T06:17:52.442Z,997.7
2016-11-22T06:18:52.430Z,997.75
2016-11-22T06:19:52.468Z,997.71
2016-11-22T06:20:52.403Z,997.77
2016-11-22T06:21:52.390Z,997.77
2016-11-22T06:22:52.377Z,997.72
2016-11-22T06:23:52.366Z,997.73
2016-11-22T06:24:52.349Z,997.84
2016-11-22T06:25:52.334Z,997.9
2016-11-22T06:26:52.322Z,997.85
2016-11-22T06:27:52.307Z,997.87
2016-11-22T06:28:52.295Z,997.97
2016-11-22T06:29:52.281Z,997.95
2016-11-22T06:30:52.267Z,997.92
2016-11-22T06:31:52.253Z,997.91
2016-11-22T06:32:52.241Z,997.9
2016-11-22T06:33:52.227Z,997.92
2016-11-22T06:34:52.214Z,997.94
2016-11-22T06:35:52.200Z,997.96
2016-11-22T06:36:52.186Z,998.01
2016-11-22T06:37:52.175Z,997.98
2016-11-22T06:38:52.162Z,998.05
2016-11-22T06:39:52.146Z,998.07
2016-11-22T06:40:52.132Z,998.08
2016-11-22T06:41:52.117Z,998.02
2016-11-22T06:42:52.105Z,998.07
2016-11-22T06:43:52.089Z,998.11
2016-11-22T06:44:52.077Z,998.14
2016-11-22T06:45:52.064Z,998.15
2016-11-22T06:46:52.049Z,998.23
2016-11-22T06:47:52.034Z,998.31
2016-11-22T06:48:52.021Z,998.28
2016-11-22T06:49:52.006Z,998.35
2016-11-22T06:50:51.994Z,998.29
2016-11-22T06:51:51.981Z,998.27
2016-11-22T06:52:51.968Z,998.27
2016-11-22T06:53:51.955Z,998.28
2016-11-22T06:54:51.940Z,998.35
2016-11-22T06:55:51.925Z,998.29
2016-11-22T06:56:51.915Z,998.26
2016-11-22T06:57:51.898Z,998.23
2016-11-22T06:58:51.887Z,998.25
2016-11-22T06:59:51.876Z,998.29
2016-11-22T07:00:51.855Z,998.28
2016-11-22T07:01:51.842Z,998.33
2016-11-22T07:02:51.830Z,998.38
2016-11-22T07:03:51.815Z,998.39
2016-11-22T07:04:51.804Z,998.46
2016-11-22T07:05:51.788Z,998.46
2016-11-22T07:06:51.776Z,998.48
2016-11-22T07:07:51.761Z,998.46
2016-11-22T07:08:51.750Z,998.48
2016-11-22T07:09:51.731Z,998.49
2016-11-22T07:10:51.720Z,998.55
2016-11-22T07:11:51.712Z,998.57
2016-11-22T07:12:51.692Z,998.55
2016-11-22T07:13:51.680Z,998.58
2016-11-22T07:14:51.664Z,998.66
2016-11-22T07:15:51.653Z,998.72
2016-11-22T07:16:51.636Z,998.73
2016-11-22T07:17:51.621Z,998.76
2016-11-22T07:18:51.608Z,998.83
2016-11-22T07:19:51.597Z,998.8
2016-11-22T07:20:51.580Z,998.83
2016-11-22T07:21:51.566Z,998.86
2016-11-22T07:22:51.552Z,998.91
2016-11-22T07:23:51.538Z,998.95
2016-11-22T07:24:51.523Z,998.94
2016-11-22T07:25:51.510Z,998.92
2016-11-22T07:26:51.495Z,998.97
2016-11-22T07:27:51.483Z,999.03
2016-11-22T07:28:51.469Z,999.09
2016-11-22T07:29:51.456Z,999.06
2016-11-22T07:30:51.440Z,999.07
2016-11-22T07:31:51.428Z,999.08
2016-11-22T07:32:51.416Z,999.09
2016-11-22T07:33:51.399Z,999.06
2016-11-22T07:34:51.386Z,999.12
2016-11-22T07:35:51.372Z,999.12
2016-11-22T07:36:51.358Z,999.19
2016-11-22T07:37:51.346Z,999.25
2016-11-22T07:38:51.330Z,999.27
2016-11-22T07:39:51.317Z,999.38
2016-11-22T07:40:51.305Z,999.41
2016-11-22T07:41:51.290Z,999.41
2016-11-22T07:42:51.278Z,999.45
2016-11-22T07:43:51.465Z,999.39
2016-11-22T07:44:51.248Z,999.38
2016-11-22T07:45:51.234Z,999.41
2016-11-22T07:46:51.221Z,999.45
2016-11-22T07:47:51.207Z,999.44
2016-11-22T07:48:51.193Z,999.45
2016-11-22T07:49:51.180Z,999.45
2016-11-22T07:50:51.165Z,999.48
2016-11-22T07:51:51.152Z,999.51
2016-11-22T07:52:51.140Z,999.57
2016-11-22T07:53:51.125Z,999.55
2016-11-22T07:54:51.112Z,999.52
2016-11-22T07:55:51.096Z,999.59
2016-11-22T07:56:51.084Z,999.6
2016-11-22T07:57:51.072Z,999.61
2016-11-22T07:58:51.056Z,999.68
2016-11-22T07:59:51.043Z,999.63
2016-11-22T08:00:51.030Z,999.68
2016-11-22T08:01:51.016Z,999.75
2016-11-22T08:02:51.002Z,999.78
2016-11-22T08:03:50.992Z,999.82
2016-11-22T08:04:50.979Z,999.79
2016-11-22T08:05:50.962Z,999.79
2016-11-22T08:06:50.946Z,999.72
2016-11-22T08:07:50.934Z,999.81
2016-11-22T08:08:50.920Z,999.8
2016-11-22T08:09:50.907Z,999.78
2016-11-22T08:10:50.900Z,999.76
2016-11-22T08:11:50.879Z,999.8
2016-11-22T08:12:50.867Z,999.85
2016-11-22T08:13:50.853Z,999.8
2016-11-22T08:14:50.838Z,999.85
2016-11-22T08:15:50.876Z,999.83
2016-11-22T08:16:50.816Z,999.89
2016-11-22T08:17:50.801Z,999.88
2016-11-22T08:18:50.789Z,999.96
2016-11-22T08:19:50.772Z,999.92
2016-11-22T08:20:50.758Z,999.96
2016-11-22T08:21:50.748Z,1000
2016-11-22T08:22:50.730Z,1000.05
2016-11-22T08:23:50.718Z,1000.06
2016-11-22T08:24:50.703Z,1000.05
2016-11-22T08:25:50.690Z,1000.02
2016-11-22T08:26:50.678Z,1000.07
2016-11-22T08:27:50.664Z,1000.11
2016-11-22T08:28:50.698Z,1000.11
2016-11-22T08:29:50.638Z,1000.07
2016-11-22T08:30:50.628Z,1000.07
2016-11-22T08:31:50.612Z,1000.12
2016-11-22T08:32:50.597Z,1000.18
2016-11-22T08:33:50.582Z,1000.13
2016-11-22T08:34:50.569Z,1000.13
2016-11-22T08:35:50.555Z,1000.13
2016-11-22T08:36:50.543Z,1000.11
2016-11-22T08:37:50.536Z,1000.1
2016-11-22T08:38:50.519Z,1000.09
2016-11-22T08:39:50.501Z,1000.21
2016-11-22T08:40:50.490Z,1000.28
2016-11-22T08:41:50.477Z,1000.3
2016-11-22T08:42:50.464Z,1000.31
2016-11-22T08:43:50.450Z,1000.32
2016-11-22T08:44:50.436Z,1000.35
2016-11-22T08:45:50.424Z,1000.33
2016-11-22T08:46:50.462Z,1000.32
2016-11-22T08:47:50.397Z,1000.3
2016-11-22T08:48:50.386Z,1000.32
2016-11-22T08:49:50.371Z,1000.3
2016-11-22T08:50:50.359Z,1000.37
2016-11-22T08:51:50.347Z,1000.36
2016-11-22T08:52:50.332Z,1000.39
2016-11-22T08:53:50.320Z,1000.43
2016-11-22T08:54:50.306Z,1000.46
2016-11-22T08:55:50.293Z,1000.52
2016-11-22T08:56:50.280Z,1000.55
2016-11-22T08:57:50.268Z,1000.58
2016-11-22T08:58:50.256Z,1000.6
2016-11-22T08:59:50.240Z,1000.59
2016-11-22T09:00:50.230Z,1000.61
2016-11-22T09:01:50.216Z,1000.59
2016-11-22T09:02:50.204Z,1000.57
2016-11-22T09:03:50.193Z,1000.61
2016-11-22T09:04:50.177Z,1000.64
2016-11-22T09:05:50.163Z,1000.74
2016-11-22T09:06:50.151Z,1000.78
2016-11-22T09:07:50.143Z,1000.78
2016-11-22T09:08:50.123Z,1000.79
2016-11-22T09:09:50.112Z,1000.81
2016-11-22T09:10:50.100Z,1000.85
2016-11-22T09:11:50.088Z,1000.92
2016-11-22T09:12:50.074Z,1000.94
2016-11-22T09:13:50.062Z,1000.89
2016-11-22T09:14:50.047Z,1000.95
2016-11-22T09:15:50.038Z,1000.92
2016-11-22T09:16:50.023Z,1000.92
2016-11-22T09:17:50.011Z,1000.94
2016-11-22T09:18:50.001Z,1000.94
2016-11-22T09:19:49.985Z,1001
2016-11-22T09:20:49.972Z,1001.03
2016-11-22T09:21:49.960Z,1001.09
2016-11-22T09:22:49.947Z,1001.13
2016-11-22T09:23:49.934Z,1001.09
2016-11-22T09:24:49.923Z,1001.1
2016-11-22T09:25:49.909Z,1001.15
2016-11-22T09:26:49.947Z,1001.22
2016-11-22T09:27:49.883Z,1001.2
2016-11-22T09:28:49.871Z,1001.26
2016-11-22T09:29:49.865Z,1001.23
2016-11-22T09:30:49.851Z,1001.24
2016-11-22T09:31:49.834Z,1001.23
2016-11-22T09:32:49.822Z,1001.18
2016-11-22T09:33:49.861Z,1001.24
2016-11-22T09:34:49.797Z,1001.25
2016-11-22T09:35:49.835Z,1001.27
2016-11-22T09:36:49.774Z,1001.28
2016-11-22T09:37:49.761Z,1001.3
2016-11-22T09:38:49.748Z,1001.37
2016-11-22T09:39:49.739Z,1001.35
2016-11-22T09:40:49.725Z,1001.33
2016-11-22T09:41:49.713Z,1001.33
2016-11-22T09:42:49.701Z,1001.34
2016-11-22T09:43:49.891Z,1001.37
2016-11-22T09:44:49.680Z,1001.44
2016-11-22T09:45:49.664Z,1001.48
2016-11-22T09:46:49.653Z,1001.63
2016-11-22T09:47:49.642Z,1001.59
2016-11-22T09:48:49.629Z,1001.62
2016-11-22T09:49:49.619Z,1001.66
2016-11-22T09:50:49.609Z,1001.67
2016-11-22T09:51:49.593Z,1001.67
2016-11-22T09:52:49.612Z,1001.66
2016-11-22T09:53:49.572Z,1001.66
2016-11-22T09:54:49.559Z,1001.66
2016-11-22T09:55:49.548Z,1001.66
2016-11-22T09:56:49.540Z,1001.67
2016-11-22T09:57:49.526Z,1001.68
2016-11-22T09:58:49.513Z,1001.66
2016-11-22T09:59:49.498Z,1001.65
2016-11-22T10:00:49.488Z,1001.61
2016-11-22T10:01:49.476Z,1001.56
2016-11-22T10:02:49.469Z,1001.53
2016-11-22T10:03:49.455Z,1001.55
2016-11-22T10:04:49.441Z,1001.57
2016-11-22T10:05:49.430Z,1001.59
2016-11-22T10:06:49.417Z,1001.71
2016-11-22T10:07:49.412Z,1001.67
2016-11-22T10:08:49.393Z,1001.74
2016-11-22T10:09:49.385Z,1001.75
2016-11-22T10:10:49.370Z,1001.85
2016-11-22T10:11:49.359Z,1001.88
2016-11-22T10:12:49.348Z,1001.84
2016-11-22T10:13:49.335Z,1001.83
2016-11-22T10:14:49.322Z,1001.86
2016-11-22T10:15:49.311Z,1001.83
2016-11-22T10:16:49.300Z,1001.81
2016-11-22T10:17:49.288Z,1001.76
2016-11-22T10:18:49.275Z,1001.75
2016-11-22T10:19:49.264Z,1001.74
2016-11-22T10:20:49.254Z,1001.71
2016-11-22T10:21:49.241Z,1001.75
2016-11-22T10:22:49.233Z,1001.76
2016-11-22T10:23:49.220Z,1001.79
2016-11-22T10:24:49.207Z,1001.86
2016-11-22T10:25:49.194Z,1001.91
2016-11-22T10:26:49.184Z,1001.91
2016-11-22T10:27:49.174Z,1001.92
2016-11-22T10:28:49.164Z,1001.92
2016-11-22T10:29:49.149Z,1001.92
2016-11-22T10:30:49.137Z,1001.95
2016-11-22T10:31:49.125Z,1001.95
2016-11-22T10:32:49.114Z,1001.94
2016-11-22T10:33:49.106Z,1001.89
2016-11-22T10:34:49.091Z,1001.91
2016-11-22T10:35:49.083Z,1001.92
2016-11-22T10:36:49.069Z,1001.93
2016-11-22T10:37:49.058Z,1001.94
2016-11-22T10:38:49.047Z,1001.91
2016-11-22T10:39:49.036Z,1001.93
2016-11-22T10:40:49.024Z,1001.94
2016-11-22T10:41:49.014Z,1001.97
2016-11-22T10:42:49.002Z,1002
2016-11-22T10:43:48.990Z,1002.02
2016-11-22T10:44:48.979Z,1002.1
2016-11-22T10:45:48.969Z,1002.1
2016-11-22T10:46:48.957Z,1002.11
2016-11-22T10:47:48.949Z,1002.19
2016-11-22T10:48:48.934Z,1002.17
2016-11-22T10:49:48.924Z,1002.17
2016-11-22T10:50:48.913Z,1002.17
2016-11-22T10:51:48.901Z,1002.21
2016-11-22T10:52:48.890Z,1002.23
2016-11-22T10:53:48.878Z,1002.21
2016-11-22T10:54:48.867Z,1002.26
2016-11-22T10:55:48.856Z,1002.27
2016-11-22T10:56:48.845Z,1002.17
2016-11-22T10:57:48.834Z,1002.19
2016-11-22T10:58:48.822Z,1002.12
2016-11-22T10:59:48.812Z,1002.11
2016-11-22T11:00:48.801Z,1002.04
2016-11-22T11:01:48.793Z,1002
2016-11-22T11:02:48.780Z,1002.03
2016-11-22T11:03:48.766Z,1002.05
2016-11-22T11:04:48.764Z,1002.09
2016-11-22T11:05:48.748Z,1002.12
2016-11-22T11:06:48.734Z,1002.11
2016-11-22T11:07:48.722Z,1002.12
2016-11-22T11:08:48.711Z,1002.05
2016-11-22T11:09:48.702Z,1002.08
2016-11-22T11:10:48.687Z,1002.08
2016-11-22T11:11:48.683Z,1002.02
2016-11-22T11:12:48.666Z,1002.01
2016-11-22T11:13:48.662Z,1002.04
2016-11-22T11:14:48.645Z,1002.02
2016-11-22T11:15:48.633Z,1002.04
2016-11-22T11:16:48.624Z,1002.03
2016-11-22T11:17:48.609Z,1002.02
2016-11-22T11:18:48.602Z,1002.04
2016-11-22T11:19:48.588Z,1002.03
2016-11-22T11:20:48.577Z,1002.02
2016-11-22T11:21:48.563Z,1002.11
2016-11-22T11:22:48.553Z,1002.18
2016-11-22T11:23:48.542Z,1002.23
2016-11-22T11:24:48.532Z,1002.21
2016-11-22T11:25:48.569Z,1002.21
2016-11-22T11:26:48.508Z,1002.18
2016-11-22T11:27:48.496Z,1002.21
2016-11-22T11:28:48.486Z,1002.23
2016-11-22T11:29:48.474Z,1002.29
2016-11-22T11:30:48.463Z,1002.26
2016-11-22T11:31:48.451Z,1002.21
2016-11-22T11:32:48.440Z,1002.26
2016-11-22T11:33:48.429Z,1002.15
2016-11-22T11:34:48.421Z,1002.15
2016-11-22T11:35:48.408Z,1002.18
2016-11-22T11:36:48.399Z,1002.15
2016-11-22T11:37:48.386Z,1002.16
2016-11-22T11:38:48.375Z,1002.12
2016-11-22T11:39:48.365Z,1002.16
2016-11-22T11:40:48.354Z,1002.19
2016-11-22T11:41:48.343Z,1002.23
2016-11-22T11:42:48.338Z,1002.18
2016-11-22T11:43:48.525Z,1002.27
2016-11-22T11:44:48.312Z,1002.2
2016-11-22T11:45:48.301Z,1002.19
2016-11-22T11:46:48.290Z,1002.11
2016-11-22T11:47:48.280Z,1002.1
2016-11-22T11:48:48.270Z,1002.04
2016-11-22T11:49:48.259Z,1002.05
2016-11-22T11:50:48.249Z,1002.07
2016-11-22T11:51:48.239Z,1002.09
2016-11-22T11:52:48.228Z,1002.1
2016-11-22T11:53:48.219Z,1002.08
2016-11-22T11:54:48.209Z,1002.08
2016-11-22T11:55:48.197Z,1002.12
2016-11-22T11:56:48.188Z,1002.1
2016-11-22T11:57:48.177Z,1002.11
2016-11-22T11:58:48.167Z,1002.16
2016-11-22T11:59:48.157Z,1002.13
2016-11-22T12:00:48.150Z,1002.18
2016-11-22T12:01:48.136Z,1002.13
2016-11-22T12:02:48.127Z,1002.16
2016-11-22T12:03:48.119Z,1002.14
2016-11-22T12:04:48.109Z,1002.08
2016-11-22T12:05:48.099Z,1002.07
2016-11-22T12:06:48.089Z,1002.12
2016-11-22T12:07:48.080Z,1002.15
2016-11-22T12:08:48.071Z,1002.18
2016-11-22T12:09:48.063Z,1002.26
2016-11-22T12:10:48.052Z,1002.24
2016-11-22T12:11:48.042Z,1002.19
2016-11-22T12:12:48.037Z,1002.18
2016-11-22T12:13:48.023Z,1002.22
2016-11-22T12:14:48.015Z,1002.23
2016-11-22T12:15:48.004Z,1002.18
2016-11-22T12:16:47.995Z,1002.21
2016-11-22T12:17:47.985Z,1002.16
2016-11-22T12:18:47.976Z,1002.19
2016-11-22T12:19:47.967Z,1002.18
2016-11-22T12:20:47.959Z,1002.15
2016-11-22T12:21:47.949Z,1002.17
2016-11-22T12:22:47.940Z,1002.19
2016-11-22T12:23:47.932Z,1002.16